Terminal Aerodrome Forecast
Issued by NWS Milwaukee/Sullivan, WI

Home | Current Version | Previous Version | Text Only | Print | Product List | Glossary On
Versions: 1 2 3 4 5 6 7 8 9 10 11 12 13 14 15 16 17 18 19 20 21 22 23 24 25 26 27 28 29
000
FTUS43 KMKX 041644 AAB
TAFMKE
TAF AMD
KMKE 041644Z 0417/0518 16005KT 2SM -SN BKN025
     FM041900 18008KT 1SM -SN OVC008
      TEMPO 0419/0423 1/2SM SN OVC003
     FM042300 20008KT 2SM -SN OVC008
     FM050100 21007KT P6SM VCSH OVC008
     FM050300 23007KT P6SM OVC010
     FM051100 26007KT P6SM SCT030=

USA.gov is the U.S. government's official web portal to all federal, state and local government web resources and services.